createdAt,value
2023-04-05T00:00:33.897Z,4.93
2023-04-05T00:03:01.382Z,5.13
2023-04-05T00:05:31.574Z,4.97
2023-04-05T00:08:00.772Z,5.40
2023-04-05T00:10:28.652Z,5.00
2023-04-05T00:12:55.855Z,5.10
2023-04-05T00:15:23.081Z,5.30
2023-04-05T00:17:50.706Z,4.77
2023-04-05T00:20:17.731Z,5.20
2023-04-05T00:22:44.945Z,5.10
2023-04-05T00:25:12.683Z,5.00
2023-04-05T00:27:44.085Z,5.23
2023-04-05T00:30:11.420Z,4.90
2023-04-05T00:32:38.540Z,5.10
2023-04-05T00:35:06.490Z,5.00
2023-04-05T00:37:33.392Z,5.13
2023-04-05T00:40:00.427Z,5.10
2023-04-05T00:42:27.682Z,4.83
2023-04-05T00:44:54.716Z,4.80
2023-04-05T00:47:21.936Z,5.00
2023-04-05T00:49:49.929Z,4.70
2023-04-05T00:52:19.554Z,4.80
2023-04-05T00:54:46.564Z,5.23
2023-04-05T00:57:14.480Z,5.30
2023-04-05T00:59:42.147Z,4.73
2023-04-05T01:02:19.837Z,5.50
2023-04-05T01:04:53.978Z,5.13
2023-04-05T01:07:28.924Z,5.43
2023-04-05T01:10:00.742Z,4.90
2023-04-05T01:12:32.728Z,4.93
2023-04-05T01:15:00.458Z,5.40
2023-04-05T01:17:34.007Z,5.17
2023-04-05T01:20:10.514Z,5.37
2023-04-05T01:23:14.687Z,5.07
2023-04-05T01:26:17.761Z,5.77
2023-04-05T01:28:52.912Z,5.40
2023-04-05T01:32:01.882Z,5.10
2023-04-05T01:34:53.960Z,5.40
2023-04-05T01:37:26.383Z,5.10
2023-04-05T01:39:53.816Z,5.50
2023-04-05T01:42:26.022Z,5.10
2023-04-05T01:44:54.800Z,5.70
2023-04-05T01:47:21.819Z,5.23
2023-04-05T01:49:49.157Z,5.37
2023-04-05T01:52:16.312Z,5.10
2023-04-05T01:54:43.748Z,5.67
2023-04-05T01:57:10.765Z,5.10
2023-04-05T01:59:37.748Z,5.33
2023-04-05T02:02:05.899Z,5.20
2023-04-05T02:04:32.928Z,5.57
2023-04-05T02:07:01.011Z,5.30
2023-04-05T02:09:27.995Z,5.07
2023-04-05T02:11:54.912Z,5.30
2023-04-05T02:14:21.903Z,4.80
2023-04-05T02:16:48.926Z,5.33
2023-04-05T02:19:16.000Z,5.13
2023-04-05T02:21:42.995Z,5.23
2023-04-05T02:24:09.988Z,5.13
2023-04-05T02:26:38.667Z,4.90
2023-04-05T02:29:05.693Z,5.10
2023-04-05T02:31:33.108Z,5.40
2023-04-05T02:34:01.109Z,5.20
2023-04-05T02:36:30.960Z,5.67
2023-04-05T02:38:58.101Z,5.60
2023-04-05T02:41:26.048Z,5.47
2023-04-05T02:43:52.990Z,5.07
2023-04-05T02:46:20.724Z,5.27
2023-04-05T02:48:47.688Z,5.20
2023-04-05T02:51:16.781Z,5.13
2023-04-05T02:53:45.011Z,5.30
2023-04-05T02:56:14.677Z,5.13
2023-04-05T02:58:45.182Z,5.10
2023-04-05T03:01:13.005Z,5.30
2023-04-05T03:03:40.959Z,5.13
2023-04-05T03:06:11.824Z,5.40
2023-04-05T03:08:46.664Z,5.27
2023-04-05T03:11:16.076Z,5.57
2023-04-05T03:13:47.366Z,5.40
2023-04-05T03:16:34.623Z,5.37
2023-04-05T03:19:08.228Z,5.17
2023-04-05T03:21:39.850Z,5.50
2023-04-05T03:24:16.228Z,5.63
2023-04-05T03:26:46.915Z,5.10
2023-04-05T03:29:17.140Z,5.30
2023-04-05T03:31:45.561Z,5.13
2023-04-05T03:34:14.899Z,5.37
2023-04-05T03:36:45.779Z,5.27
2023-04-05T03:39:23.651Z,5.23
2023-04-05T03:41:51.115Z,5.10
2023-04-05T03:44:17.989Z,5.30
2023-04-05T03:46:45.336Z,5.30
2023-04-05T03:49:13.760Z,5.17
2023-04-05T03:51:40.739Z,5.30
2023-04-05T03:54:07.649Z,5.30
2023-04-05T03:56:36.513Z,5.20
2023-04-05T03:59:11.666Z,5.37
2023-04-05T04:01:38.880Z,5.40
2023-04-05T04:04:06.711Z,5.37
2023-04-05T04:06:33.685Z,5.43
2023-04-05T04:09:01.002Z,5.23
2023-04-05T04:11:29.475Z,5.33
2023-04-05T04:13:56.594Z,5.67
2023-04-05T04:16:43.486Z,5.30
2023-04-05T04:19:32.239Z,5.35
2023-04-05T04:22:04.870Z,5.17
2023-04-05T04:24:50.458Z,5.43
2023-04-05T04:27:43.971Z,5.27
2023-04-05T04:30:38.312Z,5.23
2023-04-05T04:33:38.079Z,5.20
2023-04-05T04:36:19.054Z,5.50
2023-04-05T04:39:13.902Z,5.27
2023-04-05T04:42:01.412Z,6.87
2023-04-05T04:44:46.961Z,6.50
2023-04-05T04:47:23.009Z,7.17
2023-04-05T04:50:20.362Z,6.70
2023-04-05T04:52:48.151Z,6.53
2023-04-05T04:55:15.142Z,6.63
2023-04-05T04:57:45.759Z,6.53
2023-04-05T05:00:16.626Z,6.80
2023-04-05T05:02:44.490Z,5.93
2023-04-05T05:05:14.742Z,6.00
2023-04-05T05:07:42.294Z,5.97
2023-04-05T05:10:16.250Z,5.43
2023-04-05T05:12:43.880Z,5.50
2023-04-05T05:15:13.185Z,5.70
2023-04-05T05:17:40.195Z,5.20
2023-04-05T05:20:10.999Z,4.97
2023-04-05T05:22:39.289Z,5.00
2023-04-05T05:25:07.553Z,5.30
2023-04-05T05:27:35.496Z,5.47
2023-04-05T05:30:02.518Z,5.23
2023-04-05T05:32:30.031Z,5.10
2023-04-05T05:34:56.972Z,5.40
2023-04-05T05:37:34.119Z,5.30
2023-04-05T05:40:01.186Z,5.10
2023-04-05T05:42:28.574Z,5.13
2023-04-05T05:44:55.579Z,4.87
2023-04-05T05:47:22.611Z,5.17
2023-04-05T05:49:49.785Z,6.50
2023-04-05T05:52:17.253Z,7.10
2023-04-05T05:54:44.400Z,6.37
2023-04-05T05:57:11.498Z,6.30
2023-04-05T05:59:38.635Z,5.57
2023-04-05T06:02:05.733Z,4.90
2023-04-05T06:04:34.188Z,5.20
2023-04-05T06:07:01.779Z,6.20
2023-04-05T06:09:29.127Z,4.90
2023-04-05T06:11:57.437Z,5.37
2023-04-05T06:14:25.467Z,4.97
2023-04-05T06:16:52.866Z,4.93
2023-04-05T06:19:19.988Z,4.63
2023-04-05T06:21:46.968Z,4.73
2023-04-05T06:24:13.873Z,4.73
2023-04-05T06:26:41.341Z,4.50
2023-04-05T06:29:08.313Z,4.60
2023-04-05T06:31:36.735Z,4.47
2023-04-05T06:34:03.868Z,4.20
2023-04-05T06:36:32.139Z,3.93
2023-04-05T06:38:59.706Z,4.13
2023-04-05T06:41:27.837Z,4.07
2023-04-05T06:43:55.679Z,4.00
2023-04-05T06:46:22.998Z,4.40
2023-04-05T06:48:50.716Z,3.90
2023-04-05T06:51:18.198Z,3.93
2023-04-05T06:53:45.450Z,4.07
2023-04-05T06:56:12.755Z,4.03
2023-04-05T06:58:40.086Z,4.90
2023-04-05T07:01:07.617Z,4.03
2023-04-05T07:03:34.654Z,3.93
2023-04-05T07:06:01.884Z,4.30
2023-04-05T07:08:31.290Z,4.30
2023-04-05T07:10:58.909Z,4.53
2023-04-05T07:13:26.170Z,4.80
2023-04-05T07:16:00.664Z,4.10
2023-04-05T07:18:28.437Z,4.70
2023-04-05T07:21:00.352Z,4.80
2023-04-05T07:23:28.336Z,4.77
2023-04-05T07:25:55.755Z,4.70
2023-04-05T07:28:23.106Z,4.27
2023-04-05T07:30:50.411Z,4.63
2023-04-05T07:33:17.467Z,4.30
2023-04-05T07:35:44.408Z,4.60
2023-04-05T07:38:15.588Z,4.67
2023-04-05T07:40:42.807Z,4.60
2023-04-05T07:43:09.966Z,4.27
2023-04-05T07:45:36.962Z,4.33
2023-04-05T07:48:04.144Z,4.50
2023-04-05T07:50:31.941Z,4.23
2023-04-05T07:52:58.827Z,3.80
2023-04-05T07:55:27.405Z,4.50
2023-04-05T07:57:54.516Z,4.13
2023-04-05T08:00:22.097Z,4.47
2023-04-05T08:02:49.232Z,3.77
2023-04-05T08:05:16.314Z,4.07
2023-04-05T08:07:43.283Z,3.87
2023-04-05T08:10:10.729Z,4.20
2023-04-05T08:12:39.047Z,3.90
2023-04-05T08:15:06.839Z,4.67
2023-04-05T08:17:33.886Z,3.90
2023-04-05T08:20:00.806Z,3.80
2023-04-05T08:22:30.703Z,3.77
2023-04-05T08:24:57.742Z,3.70
2023-04-05T08:27:24.729Z,3.90
2023-04-05T08:29:51.860Z,3.97
2023-04-05T08:32:21.492Z,3.80
2023-04-05T08:34:48.427Z,3.57
2023-04-05T08:37:15.575Z,3.80
2023-04-05T08:39:42.536Z,3.60
2023-04-05T08:42:17.643Z,3.97
2023-04-05T08:44:46.649Z,4.00
2023-04-05T08:47:18.510Z,3.63
2023-04-05T08:49:46.237Z,3.97
2023-04-05T08:52:13.327Z,3.90
2023-04-05T08:54:40.601Z,3.73
2023-04-05T08:57:08.533Z,3.90
2023-04-05T08:59:39.168Z,3.90
2023-04-05T09:02:14.444Z,3.50
2023-04-05T09:04:44.961Z,3.80
2023-04-05T09:07:14.296Z,4.20
2023-04-05T09:09:46.237Z,3.93
2023-04-05T09:12:14.519Z,3.50
2023-04-05T09:14:43.022Z,3.30
2023-04-05T09:17:11.093Z,3.90
2023-04-05T09:19:38.158Z,3.77
2023-04-05T09:22:06.714Z,3.70
2023-04-05T09:24:42.416Z,3.87
2023-04-05T09:27:17.020Z,4.10
2023-04-05T09:29:50.561Z,3.50
2023-04-05T09:32:20.560Z,3.63
2023-04-05T09:34:48.265Z,3.90
2023-04-05T09:37:35.377Z,3.47
2023-04-05T09:40:04.414Z,3.00
2023-04-05T09:42:43.423Z,3.03
2023-04-05T09:45:10.704Z,3.30
2023-04-05T09:47:56.548Z,3.30
2023-04-05T09:50:23.885Z,3.20
2023-04-05T09:53:05.647Z,3.43
2023-04-05T09:55:33.391Z,3.60
2023-04-05T09:58:02.090Z,3.33
2023-04-05T10:00:32.283Z,3.87
2023-04-05T10:02:59.401Z,5.07
2023-04-05T10:05:29.750Z,3.30
2023-04-05T10:07:56.888Z,3.47
2023-04-05T10:10:24.294Z,3.50
2023-04-05T10:12:51.514Z,3.53
2023-04-05T10:15:19.225Z,3.70
2023-04-05T10:17:53.565Z,3.20
2023-04-05T10:20:25.056Z,2.90
2023-04-05T10:22:51.975Z,3.27
2023-04-05T10:25:22.028Z,3.10
2023-04-05T10:27:56.546Z,3.77
2023-04-05T10:30:27.985Z,4.73
2023-04-05T10:33:13.947Z,4.00
2023-04-05T10:35:50.309Z,4.17
2023-04-05T10:38:36.048Z,3.90
2023-04-05T10:41:12.037Z,4.33
2023-04-05T10:43:41.298Z,3.57
2023-04-05T10:46:08.929Z,3.90
2023-04-05T10:49:07.593Z,3.60
2023-04-05T10:51:35.930Z,3.43
2023-04-05T10:54:03.457Z,3.53
2023-04-05T10:56:32.195Z,3.47
2023-04-05T10:59:00.230Z,3.20
2023-04-05T11:01:27.958Z,3.60
2023-04-05T11:03:55.743Z,3.60
2023-04-05T11:06:28.586Z,3.50
2023-04-05T11:09:11.806Z,3.50
2023-04-05T11:11:40.486Z,3.20
2023-04-05T11:14:35.572Z,3.30
2023-04-05T11:17:03.930Z,3.97
2023-04-05T11:19:52.512Z,3.40
2023-04-05T11:22:27.774Z,4.10
2023-04-05T11:24:58.105Z,4.43
2023-04-05T11:27:41.113Z,4.83
2023-04-05T11:30:08.633Z,3.43
2023-04-05T11:32:45.679Z,3.30
2023-04-05T11:35:15.102Z,3.27
2023-04-05T11:38:08.560Z,3.20
2023-04-05T11:40:37.545Z,2.93
2023-04-05T11:43:12.427Z,3.10
2023-04-05T11:45:42.023Z,3.03
2023-04-05T11:48:14.262Z,3.30
2023-04-05T11:50:42.134Z,3.43
2023-04-05T11:53:10.941Z,3.23
2023-04-05T11:55:42.996Z,3.20
2023-04-05T11:58:21.756Z,3.17
2023-04-05T12:00:59.048Z,3.37
2023-04-05T12:03:30.786Z,2.90
2023-04-05T12:06:00.196Z,2.93
2023-04-05T12:08:50.212Z,2.80
2023-04-05T12:11:24.692Z,2.90
2023-04-05T12:13:56.794Z,3.30
2023-04-05T12:16:23.807Z,3.10
2023-04-05T12:18:55.362Z,3.50
2023-04-05T12:21:23.190Z,3.23
2023-04-05T12:23:51.760Z,3.10
2023-04-05T12:26:19.066Z,2.53
2023-04-05T12:28:57.214Z,2.90
2023-04-05T12:31:43.099Z,3.00
2023-04-05T12:34:11.854Z,3.70
2023-04-05T12:36:43.640Z,13.93
2023-04-05T12:39:15.866Z,3.50
2023-04-05T12:41:43.123Z,4.18
2023-04-05T12:44:16.871Z,3.10
2023-04-05T12:46:47.968Z,3.27
2023-04-05T12:49:18.667Z,3.00
2023-04-05T12:51:46.713Z,2.63
2023-04-05T12:54:14.896Z,2.80
2023-04-05T12:56:42.552Z,3.00
2023-04-05T12:59:09.705Z,3.10
2023-04-05T13:01:37.823Z,2.83
2023-04-05T13:04:15.923Z,3.13
2023-04-05T13:06:47.567Z,3.30
2023-04-05T13:09:15.153Z,3.00
2023-04-05T13:11:42.050Z,3.17
2023-04-05T13:14:09.078Z,3.20
2023-04-05T13:16:36.757Z,2.90
2023-04-05T13:19:05.690Z,3.10
2023-04-05T13:21:32.919Z,3.13
2023-04-05T13:24:00.022Z,3.17
2023-04-05T13:26:27.692Z,3.10
2023-04-05T13:28:54.615Z,3.50
2023-04-05T13:31:21.528Z,3.20
2023-04-05T13:33:48.583Z,3.10
2023-04-05T13:36:15.617Z,3.10
2023-04-05T13:38:42.669Z,2.80
2023-04-05T13:41:09.687Z,3.03
2023-04-05T13:43:36.706Z,3.13
2023-04-05T13:46:03.649Z,3.40
2023-04-05T13:48:30.622Z,2.97
2023-04-05T13:50:57.578Z,3.33
2023-04-05T13:53:26.676Z,3.13
2023-04-05T13:55:55.499Z,3.10
2023-04-05T13:58:22.418Z,3.27
2023-04-05T14:00:49.463Z,3.20
2023-04-05T14:03:16.497Z,3.17
2023-04-05T14:05:43.565Z,2.90
2023-04-05T14:08:10.502Z,3.37
2023-04-05T14:10:37.453Z,2.90
2023-04-05T14:13:04.516Z,3.20
2023-04-05T14:15:31.860Z,3.03
2023-04-05T14:17:58.820Z,3.57
2023-04-05T14:20:26.023Z,3.30
2023-04-05T14:22:52.923Z,3.60
2023-04-05T14:25:19.992Z,3.80
2023-04-05T14:27:47.063Z,3.60
2023-04-05T14:30:14.296Z,3.00
2023-04-05T14:32:41.649Z,3.83
2023-04-05T14:35:09.257Z,3.63
2023-04-05T14:37:36.590Z,3.00
2023-04-05T14:40:03.988Z,3.30
2023-04-05T14:42:45.199Z,3.10
2023-04-05T14:45:16.523Z,3.30
2023-04-05T14:47:43.513Z,3.10
2023-04-05T14:50:11.100Z,3.20
2023-04-05T14:52:39.952Z,3.43
2023-04-05T14:55:07.251Z,3.10
2023-04-05T14:57:34.374Z,3.30
2023-04-05T15:00:01.343Z,3.40
2023-04-05T15:02:28.776Z,3.57
2023-04-05T15:04:55.823Z,2.87
2023-04-05T15:07:22.811Z,3.17
2023-04-05T15:09:49.676Z,3.10
2023-04-05T15:12:16.593Z,3.00
2023-04-05T15:14:45.611Z,2.80
2023-04-05T15:17:12.907Z,3.03
2023-04-05T15:19:40.068Z,3.03
2023-04-05T15:22:07.113Z,3.10
2023-04-05T15:24:34.346Z,3.33
2023-04-05T15:27:04.435Z,3.10
2023-04-05T15:29:32.874Z,3.40
2023-04-05T15:32:01.609Z,3.20
2023-04-05T15:34:28.868Z,3.60
2023-04-05T15:36:56.068Z,4.20
2023-04-05T15:39:23.873Z,4.27
2023-04-05T15:41:51.594Z,3.80
2023-04-05T15:44:18.492Z,3.40
2023-04-05T15:46:45.673Z,3.20
2023-04-05T15:49:14.178Z,3.30
2023-04-05T15:51:42.452Z,3.20
2023-04-05T15:54:09.839Z,3.73
2023-04-05T15:56:37.790Z,3.80
2023-04-05T15:59:05.102Z,3.63
2023-04-05T16:01:32.392Z,3.90
2023-04-05T16:03:59.750Z,3.37
2023-04-05T16:06:29.470Z,3.10
2023-04-05T16:08:56.361Z,3.37
2023-04-05T16:11:23.532Z,3.30
2023-04-05T16:13:50.485Z,3.27
2023-04-05T16:16:29.920Z,3.33
2023-04-05T16:19:02.743Z,3.10
2023-04-05T16:21:31.061Z,3.13
2023-04-05T16:24:01.034Z,3.47
2023-04-05T16:26:27.984Z,4.53
2023-04-05T16:28:55.098Z,4.43
2023-04-05T16:31:22.025Z,4.13
2023-04-05T16:33:49.205Z,3.37
2023-04-05T16:36:16.815Z,3.73
2023-04-05T16:38:45.604Z,3.70
2023-04-05T16:41:14.519Z,3.60
2023-04-05T16:43:41.426Z,3.67
2023-04-05T16:46:08.368Z,4.07
2023-04-05T16:48:35.417Z,3.53
2023-04-05T16:51:02.330Z,3.30
2023-04-05T16:53:30.272Z,4.27
2023-04-05T16:55:57.397Z,4.13
2023-04-05T16:58:24.308Z,3.70
2023-04-05T17:00:55.615Z,4.57
2023-04-05T17:03:23.416Z,5.10
2023-04-05T17:05:51.121Z,5.67
2023-04-05T17:08:18.111Z,4.83
2023-04-05T17:10:45.012Z,4.47
2023-04-05T17:13:11.957Z,4.93
2023-04-05T17:15:38.872Z,4.50
2023-04-05T17:18:06.473Z,4.00
2023-04-05T17:20:33.891Z,3.73
2023-04-05T17:23:01.089Z,3.73
2023-04-05T17:25:28.084Z,4.03
2023-04-05T17:27:54.978Z,4.43
2023-04-05T17:30:21.998Z,4.00
2023-04-05T17:32:48.997Z,3.93
2023-04-05T17:35:16.231Z,3.93
2023-04-05T17:37:43.148Z,3.90
2023-04-05T17:40:10.526Z,3.70
2023-04-05T17:42:37.514Z,3.90
2023-04-05T17:45:05.007Z,3.77
2023-04-05T17:47:32.174Z,4.07
2023-04-05T17:49:59.440Z,4.00
2023-04-05T17:52:27.306Z,4.87
2023-04-05T17:54:54.491Z,4.60
2023-04-05T17:57:21.558Z,3.77
2023-04-05T17:59:48.498Z,3.87
2023-04-05T18:02:15.771Z,4.30
2023-04-05T18:04:42.875Z,4.20
2023-04-05T18:07:10.151Z,4.07
2023-04-05T18:09:38.631Z,4.90
2023-04-05T18:12:06.263Z,4.20
2023-04-05T18:14:33.477Z,3.90
2023-04-05T18:17:00.439Z,4.03
2023-04-05T18:19:27.904Z,4.00
2023-04-05T18:21:55.042Z,4.20
2023-04-05T18:24:22.307Z,4.80
2023-04-05T18:26:49.518Z,4.30
2023-04-05T18:29:16.441Z,4.50
2023-04-05T18:31:43.502Z,4.40
2023-04-05T18:34:10.597Z,4.30
2023-04-05T18:36:39.676Z,4.00
2023-04-05T18:39:07.005Z,4.27
2023-04-05T18:41:34.154Z,4.23
2023-04-05T18:52:50.536Z,5.13
2023-04-05T18:55:17.926Z,5.00
2023-04-05T18:57:44.947Z,4.40
2023-04-05T19:00:12.414Z,4.73
2023-04-05T19:02:39.462Z,5.13
2023-04-05T19:05:07.393Z,6.10
2023-04-05T19:07:34.424Z,6.20
2023-04-05T19:10:01.400Z,6.63
2023-04-05T19:12:30.244Z,7.10
2023-04-05T19:14:57.325Z,7.63
2023-04-05T19:17:24.580Z,6.40
2023-04-05T19:19:51.812Z,5.57
2023-04-05T19:22:18.895Z,5.03
2023-04-05T19:24:46.131Z,4.80
2023-04-05T19:27:13.800Z,4.87
2023-04-05T19:29:41.280Z,4.90
2023-04-05T19:32:09.109Z,4.70
2023-04-05T19:34:39.195Z,4.77
2023-04-05T19:37:06.696Z,4.30
2023-04-05T19:39:38.787Z,4.70
2023-04-05T19:42:07.759Z,4.47
2023-04-05T19:44:55.098Z,4.50
2023-04-05T19:47:22.278Z,4.70
2023-04-05T19:49:51.206Z,4.40
2023-04-05T19:52:48.435Z,4.30
2023-04-05T19:55:35.441Z,4.30
2023-04-05T19:58:07.624Z,4.00
2023-04-05T20:00:52.786Z,5.40
2023-04-05T20:03:28.811Z,7.37
2023-04-05T20:06:12.666Z,6.67
2023-04-05T20:08:44.430Z,6.63
2023-04-05T20:11:17.744Z,5.97
2023-04-05T20:13:59.004Z,5.17
2023-04-05T20:16:29.284Z,5.10
2023-04-05T20:19:07.805Z,4.77
2023-04-05T20:21:37.640Z,4.60
2023-04-05T20:24:08.839Z,4.80
2023-04-05T20:26:35.826Z,4.73
2023-04-05T20:29:07.344Z,4.70
2023-04-05T20:31:38.869Z,5.10
2023-04-05T20:34:31.019Z,4.80
2023-04-05T20:37:01.946Z,4.43
2023-04-05T20:39:29.849Z,4.30
2023-04-05T20:41:57.814Z,4.60
2023-04-05T20:44:25.880Z,4.50
2023-04-05T20:46:54.773Z,4.37
2023-04-05T20:49:22.494Z,5.17
2023-04-05T20:51:50.762Z,4.30
2023-04-05T20:54:19.605Z,4.70
2023-04-05T20:56:46.841Z,4.53
2023-04-05T20:59:14.797Z,4.43
2023-04-05T21:01:43.521Z,4.50
2023-04-05T21:04:11.207Z,4.40
2023-04-05T21:06:39.747Z,4.60
2023-04-05T21:09:06.852Z,4.80
2023-04-05T21:11:33.847Z,4.60
2023-04-05T21:14:00.987Z,4.70
2023-04-05T21:16:27.985Z,4.80
2023-04-05T21:18:55.235Z,4.53
2023-04-05T21:21:22.150Z,5.57
2023-04-05T21:23:49.197Z,5.80
2023-04-05T21:26:16.244Z,5.93
2023-04-05T21:28:43.197Z,6.67
2023-04-05T21:31:10.837Z,5.90
2023-04-05T21:33:38.024Z,5.53
2023-04-05T21:36:05.273Z,6.50
2023-04-05T21:38:32.246Z,5.70
2023-04-05T21:40:59.132Z,5.80
2023-04-05T21:43:26.167Z,5.37
2023-04-05T21:45:53.241Z,7.57
2023-04-05T21:48:20.342Z,6.67
2023-04-05T21:50:47.317Z,6.30
2023-04-05T21:53:14.762Z,5.90
2023-04-05T21:55:41.739Z,5.93
2023-04-05T21:58:08.702Z,6.07
2023-04-05T22:00:36.147Z,6.83
2023-04-05T22:03:03.247Z,6.50
2023-04-05T22:05:37.791Z,5.83
2023-04-05T22:08:07.223Z,6.00
2023-04-05T22:10:35.419Z,6.50
2023-04-05T22:13:02.370Z,6.37
2023-04-05T22:15:29.405Z,6.63
2023-04-05T22:17:56.383Z,8.00
2023-04-05T22:20:23.408Z,8.07
2023-04-05T22:22:50.388Z,7.90
2023-04-05T22:25:17.351Z,6.93
2023-04-05T22:27:44.643Z,6.57
2023-04-05T22:30:11.915Z,6.97
2023-04-05T22:32:38.867Z,6.97
2023-04-05T22:35:06.408Z,6.70
2023-04-05T22:37:36.506Z,5.73
2023-04-05T22:40:04.922Z,6.43
2023-04-05T22:42:32.119Z,6.30
2023-04-05T22:44:59.200Z,6.00
2023-04-05T22:47:26.497Z,5.63
2023-04-05T22:49:53.731Z,5.67
2023-04-05T22:52:21.074Z,5.80
2023-04-05T22:54:48.096Z,5.90
2023-04-05T22:57:15.144Z,6.60
2023-04-05T22:59:42.298Z,6.37
2023-04-05T23:02:10.030Z,6.37
2023-04-05T23:04:37.329Z,6.50
2023-04-05T23:07:04.251Z,6.67
2023-04-05T23:09:31.461Z,6.17
2023-04-05T23:11:58.378Z,5.70
2023-04-05T23:14:27.281Z,5.73
2023-04-05T23:16:54.209Z,6.40
2023-04-05T23:19:21.488Z,5.70
2023-04-05T23:21:49.222Z,6.10
2023-04-05T23:24:16.167Z,5.70
2023-04-05T23:26:43.197Z,6.10
2023-04-05T23:29:10.231Z,6.23
2023-04-05T23:31:37.690Z,5.73
2023-04-05T23:34:04.710Z,6.40
2023-04-05T23:36:32.422Z,6.03
2023-04-05T23:39:02.434Z,6.10
2023-04-05T23:41:29.698Z,6.43
2023-04-05T23:43:56.994Z,6.20
2023-04-05T23:46:24.058Z,6.47
2023-04-05T23:48:51.150Z,6.43
2023-04-05T23:51:18.323Z,6.10
2023-04-05T23:53:45.439Z,5.80
2023-04-05T23:56:12.517Z,6.37
2023-04-05T23:58:42.284Z,6.27
